CA63 weather

John Muir Walnut Creek Medical Center Heliport
Walnut Creek, California, United States

Public forecast

Using degrees Fahrenheit for public forecast. Weather courtesy of forecast.io.

Closest aviation weather report (METAR) to John Muir Walnut Creek Medical Center Heliport

Closest report is Buchanan Field, 4.7 nm (8.7 km) N. Retrieved 2019/12/08 19:53 UTC (51 minutes ago):

KCCR 081953Z 31009KT 9SM -RA FEW019 BKN025 BKN031 16/11 A3002 RMK AO2 RAB53 SLP153 P0000 T01610111

Closest aviation forecast (TAF) to John Muir Walnut Creek Medical Center Heliport

Forecast is more than 12 hours old.

Closest forecast is Buchanan Field, 4.7 nm (8.7 km) N. Retrieved 2016/02/08 00:21 UTC (4 years ago):

TAF KCCR 082320Z 0900/0924 06006KT P6SM SKC FM090600 VRB03KT P6SM SKC FM091800 04009KT P6SM SKC